sensor_id;sensor_type;location;lat;lon;timestamp;pressure;altitude;pressure_sealevel;temperature;humidity
77626;BME280;66794;43.764;10.436;2023-03-21T00:01:25;102064.13;;;9.47;100.00
77626;BME280;66794;43.764;10.436;2023-03-21T00:03:51;102068.09;;;9.43;100.00
77626;BME280;66794;43.764;10.436;2023-03-21T00:06:16;102075.50;;;9.51;100.00
77626;BME280;66794;43.764;10.436;2023-03-21T00:08:41;102075.31;;;9.73;100.00
77626;BME280;66794;43.764;10.436;2023-03-21T00:11:08;102069.91;;;9.73;100.00
77626;BME280;66794;43.764;10.436;2023-03-21T00:13:34;102061.06;;;9.81;100.00
77626;BME280;66794;43.764;10.436;2023-03-21T00:16:12;102067.47;;;9.80;100.00
77626;BME280;66794;43.764;10.436;2023-03-21T00:18:39;102066.22;;;9.84;100.00
77626;BME280;66794;43.764;10.436;2023-03-21T00:21:06;102072.56;;;9.64;100.00
77626;BME280;66794;43.764;10.436;2023-03-21T00:23:33;102061.47;;;9.77;100.00
77626;BME280;66794;43.764;10.436;2023-03-21T00:25:58;102054.03;;;9.59;100.00
77626;BME280;66794;43.764;10.436;2023-03-21T00:28:24;102053.25;;;9.38;100.00
77626;BME280;66794;43.764;10.436;2023-03-21T00:30:50;102048.31;;;9.43;100.00
77626;BME280;66794;43.764;10.436;2023-03-21T00:33:15;102053.66;;;9.33;100.00
77626;BME280;66794;43.764;10.436;2023-03-21T00:35:45;102053.16;;;9.49;100.00
77626;BME280;66794;43.764;10.436;2023-03-21T00:38:12;102045.78;;;9.61;100.00
77626;BME280;66794;43.764;10.436;2023-03-21T00:40:38;102052.25;;;9.79;100.00
77626;BME280;66794;43.764;10.436;2023-03-21T00:43:03;102044.34;;;9.47;100.00
77626;BME280;66794;43.764;10.436;2023-03-21T00:45:28;102043.53;;;9.66;100.00
77626;BME280;66794;43.764;10.436;2023-03-21T00:47:54;102043.66;;;9.64;100.00
77626;BME280;66794;43.764;10.436;2023-03-21T00:50:19;102033.53;;;9.57;100.00
77626;BME280;66794;43.764;10.436;2023-03-21T00:52:44;102033.78;;;9.44;100.00
77626;BME280;66794;43.764;10.436;2023-03-21T00:55:13;102031.59;;;9.68;100.00
77626;BME280;66794;43.764;10.436;2023-03-21T00:57:39;102027.88;;;9.29;100.00
77626;BME280;66794;43.764;10.436;2023-03-21T01:00:04;102027.84;;;8.89;100.00
77626;BME280;66794;43.764;10.436;2023-03-21T01:02:34;102028.97;;;9.17;100.00
77626;BME280;66794;43.764;10.436;2023-03-21T01:05:02;102028.78;;;9.30;100.00
77626;BME280;66794;43.764;10.436;2023-03-21T01:07:27;102030.38;;;9.42;100.00
77626;BME280;66794;43.764;10.436;2023-03-21T01:09:53;102023.66;;;9.36;100.00
77626;BME280;66794;43.764;10.436;2023-03-21T01:12:18;102025.25;;;9.48;100.00
77626;BME280;66794;43.764;10.436;2023-03-21T01:14:43;102016.28;;;9.08;100.00
77626;BME280;66794;43.764;10.436;2023-03-21T01:17:09;102013.34;;;8.90;100.00
77626;BME280;66794;43.764;10.436;2023-03-21T01:19:34;102015.56;;;9.06;100.00
77626;BME280;66794;43.764;10.436;2023-03-21T01:21:59;102015.78;;;9.23;100.00
77626;BME280;66794;43.764;10.436;2023-03-21T01:24:25;102007.56;;;8.94;100.00
77626;BME280;66794;43.764;10.436;2023-03-21T01:26:50;102001.63;;;8.70;100.00
77626;BME280;66794;43.764;10.436;2023-03-21T01:29:15;101997.53;;;8.85;100.00
77626;BME280;66794;43.764;10.436;2023-03-21T01:31:41;101993.00;;;9.16;100.00
77626;BME280;66794;43.764;10.436;2023-03-21T01:34:06;102006.44;;;8.97;100.00
77626;BME280;66794;43.764;10.436;2023-03-21T01:36:31;102003.47;;;9.00;100.00
77626;BME280;66794;43.764;10.436;2023-03-21T01:38:57;102006.03;;;8.71;100.00
77626;BME280;66794;43.764;10.436;2023-03-21T01:41:26;102003.78;;;8.76;100.00
77626;BME280;66794;43.764;10.436;2023-03-21T01:43:52;102007.03;;;8.80;100.00
77626;BME280;66794;43.764;10.436;2023-03-21T01:48:50;101992.28;;;8.84;100.00
77626;BME280;66794;43.764;10.436;2023-03-21T01:51:17;101988.22;;;8.68;100.00
77626;BME280;66794;43.764;10.436;2023-03-21T01:53:43;101997.19;;;8.69;100.00
77626;BME280;66794;43.764;10.436;2023-03-21T01:58:34;101990.28;;;8.55;100.00
77626;BME280;66794;43.764;10.436;2023-03-21T02:01:00;101987.44;;;8.57;100.00
77626;BME280;66794;43.764;10.436;2023-03-21T02:03:27;101990.41;;;8.33;100.00
77626;BME280;66794;43.764;10.436;2023-03-21T02:06:09;101979.16;;;8.49;100.00
77626;BME280;66794;43.764;10.436;2023-03-21T02:08:36;101981.91;;;8.58;100.00
77626;BME280;66794;43.764;10.436;2023-03-21T02:11:02;101979.00;;;8.71;100.00
77626;BME280;66794;43.764;10.436;2023-03-21T02:13:28;101987.13;;;8.50;100.00
77626;BME280;66794;43.764;10.436;2023-03-21T02:18:21;101985.53;;;8.48;100.00
77626;BME280;66794;43.764;10.436;2023-03-21T02:20:54;101978.50;;;8.56;100.00
77626;BME280;66794;43.764;10.436;2023-03-21T02:23:45;101982.72;;;8.49;100.00
77626;BME280;66794;43.764;10.436;2023-03-21T02:34:19;101981.03;;;8.48;100.00
77626;BME280;66794;43.764;10.436;2023-03-21T02:41:54;101987.00;;;7.67;100.00
77626;BME280;66794;43.764;10.436;2023-03-21T02:49:31;101978.78;;;8.00;100.00
77626;BME280;66794;43.764;10.436;2023-03-21T02:51:58;101971.47;;;7.91;100.00
77626;BME280;66794;43.764;10.436;2023-03-21T02:54:25;101975.09;;;8.01;100.00
77626;BME280;66794;43.764;10.436;2023-03-21T02:56:52;101965.75;;;8.26;100.00
77626;BME280;66794;43.764;10.436;2023-03-21T02:59:20;101966.88;;;8.24;100.00
77626;BME280;66794;43.764;10.436;2023-03-21T03:01:46;101963.75;;;7.86;100.00
77626;BME280;66794;43.764;10.436;2023-03-21T03:04:19;101963.47;;;7.69;100.00
77626;BME280;66794;43.764;10.436;2023-03-21T03:14:50;101960.88;;;7.24;100.00
77626;BME280;66794;43.764;10.436;2023-03-21T03:17:19;101968.00;;;7.14;100.00
77626;BME280;66794;43.764;10.436;2023-03-21T03:22:25;101962.59;;;7.25;100.00
77626;BME280;66794;43.764;10.436;2023-03-21T03:24:56;101961.38;;;7.61;100.00
77626;BME280;66794;43.764;10.436;2023-03-21T03:27:28;101956.78;;;7.52;100.00
77626;BME280;66794;43.764;10.436;2023-03-21T03:29:56;101951.59;;;7.60;100.00
77626;BME280;66794;43.764;10.436;2023-03-21T03:32:56;101956.97;;;7.60;100.00
77626;BME280;66794;43.764;10.436;2023-03-21T03:35:15;101951.88;;;7.57;100.00
77626;BME280;66794;43.764;10.436;2023-03-21T03:37:41;101956.09;;;7.71;100.00
77626;BME280;66794;43.764;10.436;2023-03-21T03:42:53;101959.00;;;7.47;100.00
77626;BME280;66794;43.764;10.436;2023-03-21T03:45:22;101959.16;;;7.23;100.00
77626;BME280;66794;43.764;10.436;2023-03-21T03:47:58;101956.69;;;7.31;100.00
77626;BME280;66794;43.764;10.436;2023-03-21T03:50:34;101948.00;;;7.27;100.00
77626;BME280;66794;43.764;10.436;2023-03-21T03:53:22;101948.28;;;7.24;100.00
77626;BME280;66794;43.764;10.436;2023-03-21T03:55:50;101945.91;;;7.31;100.00
77626;BME280;66794;43.764;10.436;2023-03-21T03:58:16;101951.28;;;7.42;100.00
77626;BME280;66794;43.764;10.436;2023-03-21T04:00:43;101953.63;;;7.35;100.00
77626;BME280;66794;43.764;10.436;2023-03-21T04:03:08;101955.97;;;7.40;100.00
77626;BME280;66794;43.764;10.436;2023-03-21T04:05:35;101961.34;;;7.40;100.00
77626;BME280;66794;43.764;10.436;2023-03-21T04:08:00;101967.00;;;7.15;100.00
77626;BME280;66794;43.764;10.436;2023-03-21T04:10:26;101967.63;;;6.84;100.00
77626;BME280;66794;43.764;10.436;2023-03-21T04:12:51;101969.47;;;6.84;100.00
77626;BME280;66794;43.764;10.436;2023-03-21T04:15:16;101962.13;;;6.97;100.00
77626;BME280;66794;43.764;10.436;2023-03-21T04:17:43;101963.47;;;7.14;100.00
77626;BME280;66794;43.764;10.436;2023-03-21T04:20:09;101966.66;;;7.08;100.00
77626;BME280;66794;43.764;10.436;2023-03-21T04:22:35;101958.22;;;7.13;100.00
77626;BME280;66794;43.764;10.436;2023-03-21T04:25:00;101962.72;;;7.34;100.00
77626;BME280;66794;43.764;10.436;2023-03-21T04:27:26;101948.06;;;7.48;100.00
77626;BME280;66794;43.764;10.436;2023-03-21T04:29:51;101950.41;;;7.53;100.00
77626;BME280;66794;43.764;10.436;2023-03-21T04:32:16;101954.38;;;7.26;100.00
77626;BME280;66794;43.764;10.436;2023-03-21T04:34:44;101955.00;;;7.30;100.00
77626;BME280;66794;43.764;10.436;2023-03-21T04:37:17;101948.00;;;7.27;100.00
77626;BME280;66794;43.764;10.436;2023-03-21T04:39:43;101948.28;;;7.24;100.00
77626;BME280;66794;43.764;10.436;2023-03-21T04:42:10;101943.38;;;7.29;100.00
77626;BME280;66794;43.764;10.436;2023-03-21T04:44:36;101951.59;;;7.05;100.00
77626;BME280;66794;43.764;10.436;2023-03-21T04:47:01;101941.19;;;6.90;100.00
77626;BME280;66794;43.764;10.436;2023-03-21T04:49:26;101940.22;;;6.79;100.00
77626;BME280;66794;43.764;10.436;2023-03-21T04:51:52;101954.16;;;6.84;100.00
77626;BME280;66794;43.764;10.436;2023-03-21T04:54:17;101949.88;;;7.04;100.00
77626;BME280;66794;43.764;10.436;2023-03-21T04:56:43;101946.09;;;7.18;100.00
77626;BME280;66794;43.764;10.436;2023-03-21T04:59:10;101951.84;;;7.02;100.00
77626;BME280;66794;43.764;10.436;2023-03-21T05:01:35;101955.72;;;7.32;100.00
77626;BME280;66794;43.764;10.436;2023-03-21T05:04:01;101951.19;;;7.32;100.00
77626;BME280;66794;43.764;10.436;2023-03-21T05:06:27;101953.28;;;7.29;100.00
77626;BME280;66794;43.764;10.436;2023-03-21T05:08:53;101960.38;;;7.30;100.00
77626;BME280;66794;43.764;10.436;2023-03-21T05:11:21;101947.94;;;7.50;100.00
77626;BME280;66794;43.764;10.436;2023-03-21T05:13:46;101955.59;;;7.33;100.00
77626;BME280;66794;43.764;10.436;2023-03-21T05:16:11;101959.72;;;7.49;100.00
77626;BME280;66794;43.764;10.436;2023-03-21T05:18:37;101959.38;;;7.42;100.00
77626;BME280;66794;43.764;10.436;2023-03-21T05:21:03;101966.66;;;7.08;100.00
77626;BME280;66794;43.764;10.436;2023-03-21T05:23:28;101970.22;;;7.08;100.00
77626;BME280;66794;43.764;10.436;2023-03-21T05:25:55;101964.34;;;7.03;100.00
77626;BME280;66794;43.764;10.436;2023-03-21T05:28:21;101966.31;;;7.01;100.00
77626;BME280;66794;43.764;10.436;2023-03-21T05:30:46;101966.53;;;6.98;100.00
77626;BME280;66794;43.764;10.436;2023-03-21T05:33:11;101974.13;;;6.93;100.00
77626;BME280;66794;43.764;10.436;2023-03-21T05:35:37;101976.09;;;6.80;100.00
77626;BME280;66794;43.764;10.436;2023-03-21T05:38:02;101971.91;;;6.53;100.00
77626;BME280;66794;43.764;10.436;2023-03-21T05:40:28;101970.53;;;6.37;100.00
77626;BME280;66794;43.764;10.436;2023-03-21T05:42:53;101967.25;;;6.55;100.00
77626;BME280;66794;43.764;10.436;2023-03-21T05:45:18;101973.91;;;6.16;100.00
77626;BME280;66794;43.764;10.436;2023-03-21T05:47:44;101973.84;;;6.51;100.00
77626;BME280;66794;43.764;10.436;2023-03-21T05:50:09;101988.44;;;6.14;100.00
77626;BME280;66794;43.764;10.436;2023-03-21T05:52:35;101976.88;;;6.47;100.00
77626;BME280;66794;43.764;10.436;2023-03-21T05:55:01;101985.94;;;6.46;100.00
77626;BME280;66794;43.764;10.436;2023-03-21T05:57:26;101986.56;;;6.49;100.00
77626;BME280;66794;43.764;10.436;2023-03-21T05:59:53;101984.03;;;6.70;100.00
77626;BME280;66794;43.764;10.436;2023-03-21T06:02:18;101995.16;;;6.66;100.00
77626;BME280;66794;43.764;10.436;2023-03-21T06:04:44;101994.94;;;6.80;100.00
77626;BME280;66794;43.764;10.436;2023-03-21T06:07:09;102000.34;;;7.02;100.00
77626;BME280;66794;43.764;10.436;2023-03-21T06:09:35;102000.69;;;7.20;100.00
77626;BME280;66794;43.764;10.436;2023-03-21T06:12:00;101993.81;;;7.27;100.00
77626;BME280;66794;43.764;10.436;2023-03-21T06:14:26;101998.38;;;7.04;100.00
77626;BME280;66794;43.764;10.436;2023-03-21T06:16:51;102001.78;;;7.06;100.00
77626;BME280;66794;43.764;10.436;2023-03-21T06:19:18;102000.06;;;7.05;100.00
77626;BME280;66794;43.764;10.436;2023-03-21T06:21:43;102003.38;;;7.20;100.00
77626;BME280;66794;43.764;10.436;2023-03-21T06:24:08;102008.13;;;7.39;100.00
77626;BME280;66794;43.764;10.436;2023-03-21T06:26:34;102011.28;;;7.55;100.00
77626;BME280;66794;43.764;10.436;2023-03-21T06:28:59;102013.50;;;7.61;100.00
77626;BME280;66794;43.764;10.436;2023-03-21T06:31:25;102010.97;;;7.81;100.00
77626;BME280;66794;43.764;10.436;2023-03-21T06:33:50;102014.97;;;7.98;100.00
77626;BME280;66794;43.764;10.436;2023-03-21T06:36:16;102006.00;;;7.97;100.00
77626;BME280;66794;43.764;10.436;2023-03-21T06:38:41;102009.66;;;8.07;100.00
77626;BME280;66794;43.764;10.436;2023-03-21T06:41:07;102015.13;;;8.17;100.00
77626;BME280;66794;43.764;10.436;2023-03-21T06:43:33;102008.75;;;8.18;100.00
77626;BME280;66794;43.764;10.436;2023-03-21T06:45:58;102009.13;;;8.46;100.00
77626;BME280;66794;43.764;10.436;2023-03-21T06:48:23;102009.78;;;8.38;100.00
77626;BME280;66794;43.764;10.436;2023-03-21T06:50:50;102013.41;;;8.48;100.00
77626;BME280;66794;43.764;10.436;2023-03-21T06:53:16;102010.38;;;8.41;100.00
77626;BME280;66794;43.764;10.436;2023-03-21T06:55:41;102009.34;;;8.54;100.00
77626;BME280;66794;43.764;10.436;2023-03-21T06:58:06;102003.72;;;8.66;100.00
77626;BME280;66794;43.764;10.436;2023-03-21T07:00:32;102010.91;;;8.56;100.00
77626;BME280;66794;43.764;10.436;2023-03-21T07:02:57;102014.03;;;9.13;100.00
77626;BME280;66794;43.764;10.436;2023-03-21T07:05:22;102019.97;;;9.07;100.00
77626;BME280;66794;43.764;10.436;2023-03-21T07:07:48;102015.88;;;9.12;100.00
77626;BME280;66794;43.764;10.436;2023-03-21T07:10:13;102019.88;;;9.18;100.00
77626;BME280;66794;43.764;10.436;2023-03-21T07:12:39;102019.66;;;9.31;100.00
77626;BME280;66794;43.764;10.436;2023-03-21T07:15:04;102024.56;;;9.46;100.00
77626;BME280;66794;43.764;10.436;2023-03-21T07:17:31;102030.13;;;9.55;100.00
77626;BME280;66794;43.764;10.436;2023-03-21T07:19:56;102023.03;;;9.73;100.00
77626;BME280;66794;43.764;10.436;2023-03-21T07:22:21;102035.75;;;9.92;100.00
77626;BME280;66794;43.764;10.436;2023-03-21T07:24:47;102022.66;;;9.97;100.00
77626;BME280;66794;43.764;10.436;2023-03-21T07:27:13;102022.94;;;10.13;100.00
77626;BME280;66794;43.764;10.436;2023-03-21T07:29:38;102021.94;;;10.14;100.00
77626;BME280;66794;43.764;10.436;2023-03-21T07:32:03;102021.38;;;10.01;100.00
77626;BME280;66794;43.764;10.436;2023-03-21T07:34:28;102022.41;;;10.29;100.00
77626;BME280;66794;43.764;10.436;2023-03-21T07:36:57;102023.53;;;10.36;100.00
77626;BME280;66794;43.764;10.436;2023-03-21T07:39:22;102026.09;;;10.28;100.00
77626;BME280;66794;43.764;10.436;2023-03-21T07:41:47;102015.50;;;10.54;100.00
77626;BME280;66794;43.764;10.436;2023-03-21T07:44:13;102017.19;;;10.65;100.00
77626;BME280;66794;43.764;10.436;2023-03-21T07:46:38;102012.38;;;10.49;100.00
77626;BME280;66794;43.764;10.436;2023-03-21T07:49:03;102017.06;;;10.66;100.00
77626;BME280;66794;43.764;10.436;2023-03-21T07:51:30;102017.75;;;10.88;100.00
77626;BME280;66794;43.764;10.436;2023-03-21T07:53:55;102018.03;;;11.22;100.00
77626;BME280;66794;43.764;10.436;2023-03-21T07:56:20;102021.97;;;11.37;100.00
77626;BME280;66794;43.764;10.436;2023-03-21T07:58:46;102020.69;;;11.31;100.00
77626;BME280;66794;43.764;10.436;2023-03-21T08:01:11;102022.31;;;11.97;100.00
77626;BME280;66794;43.764;10.436;2023-03-21T08:03:36;102027.53;;;11.91;100.00
77626;BME280;66794;43.764;10.436;2023-03-21T08:06:02;102024.03;;;11.98;100.00
77626;BME280;66794;43.764;10.436;2023-03-21T08:08:27;102015.88;;;12.16;100.00
77626;BME280;66794;43.764;10.436;2023-03-21T08:10:53;102026.19;;;12.30;100.00
77626;BME280;66794;43.764;10.436;2023-03-21T08:13:18;102026.97;;;12.41;100.00
77626;BME280;66794;43.764;10.436;2023-03-21T08:15:43;102024.44;;;12.65;100.00
77626;BME280;66794;43.764;10.436;2023-03-21T08:18:09;102016.00;;;12.76;100.00
77626;BME280;66794;43.764;10.436;2023-03-21T08:20:34;102019.16;;;12.89;100.00
77626;BME280;66794;43.764;10.436;2023-03-21T08:23:00;102018.91;;;13.09;100.00
77626;BME280;66794;43.764;10.436;2023-03-21T08:25:25;102017.53;;;13.31;100.00
77626;BME280;66794;43.764;10.436;2023-03-21T08:27:50;102027.91;;;13.27;96.95
77626;BME280;66794;43.764;10.436;2023-03-21T08:30:17;102022.84;;;13.40;96.79
77626;BME280;66794;43.764;10.436;2023-03-21T08:32:43;102025.16;;;13.69;93.14
77626;BME280;66794;43.764;10.436;2023-03-21T08:35:09;102023.34;;;13.86;91.93
77626;BME280;66794;43.764;10.436;2023-03-21T08:37:35;102024.06;;;14.05;92.67
77626;BME280;66794;43.764;10.436;2023-03-21T08:40:01;102018.63;;;14.21;92.09
77626;BME280;66794;43.764;10.436;2023-03-21T08:42:26;102022.88;;;14.32;89.86
77626;BME280;66794;43.764;10.436;2023-03-21T08:44:52;102029.03;;;14.50;87.53
77626;BME280;66794;43.764;10.436;2023-03-21T08:47:17;102025.13;;;14.69;87.48
77626;BME280;66794;43.764;10.436;2023-03-21T08:49:42;102026.16;;;14.52;88.02
77626;BME280;66794;43.764;10.436;2023-03-21T08:52:09;102023.22;;;14.61;88.28
77626;BME280;66794;43.764;10.436;2023-03-21T08:54:35;102025.06;;;14.93;86.04
77626;BME280;66794;43.764;10.436;2023-03-21T08:57:00;102024.78;;;14.64;84.15
77626;BME280;66794;43.764;10.436;2023-03-21T08:59:25;102025.00;;;15.18;88.63
77626;BME280;66794;43.764;10.436;2023-03-21T09:01:51;102024.56;;;15.45;81.74
77626;BME280;66794;43.764;10.436;2023-03-21T09:04:16;102026.66;;;15.35;81.26
77626;BME280;66794;43.764;10.436;2023-03-21T09:06:43;102022.75;;;15.30;83.20
77626;BME280;66794;43.764;10.436;2023-03-21T09:09:09;102014.41;;;15.62;81.85
77626;BME280;66794;43.764;10.436;2023-03-21T09:11:35;102020.97;;;15.84;80.54
77626;BME280;66794;43.764;10.436;2023-03-21T09:14:00;102010.47;;;15.73;81.95
77626;BME280;66794;43.764;10.436;2023-03-21T09:16:26;102020.66;;;15.40;85.79
77626;BME280;66794;43.764;10.436;2023-03-21T09:18:51;102009.94;;;15.30;83.81
77626;BME280;66794;43.764;10.436;2023-03-21T09:21:19;102011.66;;;15.31;85.92
77626;BME280;66794;43.764;10.436;2023-03-21T09:23:47;102015.44;;;15.61;84.28
77626;BME280;66794;43.764;10.436;2023-03-21T09:26:14;102018.25;;;15.84;79.79
77626;BME280;66794;43.764;10.436;2023-03-21T09:28:40;102015.34;;;15.46;78.74
77626;BME280;66794;43.764;10.436;2023-03-21T09:31:07;102013.34;;;16.02;76.21
77626;BME280;66794;43.764;10.436;2023-03-21T09:33:35;102010.47;;;16.19;76.69
77626;BME280;66794;43.764;10.436;2023-03-21T09:36:01;102010.72;;;16.32;76.13
77626;BME280;66794;43.764;10.436;2023-03-21T09:38:27;102014.63;;;16.52;75.74
77626;BME280;66794;43.764;10.436;2023-03-21T09:43:49;102008.91;;;16.24;79.48
77626;BME280;66794;43.764;10.436;2023-03-21T09:49:09;102022.25;;;15.96;78.34
77626;BME280;66794;43.764;10.436;2023-03-21T09:51:39;102016.78;;;15.96;78.58
77626;BME280;66794;43.764;10.436;2023-03-21T09:56:49;102015.31;;;15.86;80.45
77626;BME280;66794;43.764;10.436;2023-03-21T09:59:21;102015.50;;;16.30;79.33
77626;BME280;66794;43.764;10.436;2023-03-21T10:01:49;102014.22;;;16.41;80.62
77626;BME280;66794;43.764;10.436;2023-03-21T10:04:15;102017.03;;;16.33;77.88
77626;BME280;66794;43.764;10.436;2023-03-21T10:06:43;102009.56;;;16.49;78.23
77626;BME280;66794;43.764;10.436;2023-03-21T10:09:12;102008.31;;;16.90;77.61
77626;BME280;66794;43.764;10.436;2023-03-21T10:11:43;102011.94;;;16.67;77.91
77626;BME280;66794;43.764;10.436;2023-03-21T10:16:42;102010.00;;;16.15;79.01
77626;BME280;66794;43.764;10.436;2023-03-21T10:19:10;102012.38;;;15.95;78.92
77626;BME280;66794;43.764;10.436;2023-03-21T10:21:37;102012.19;;;16.43;78.65
77626;BME280;66794;43.764;10.436;2023-03-21T10:24:03;102003.16;;;17.09;77.88
77626;BME280;66794;43.764;10.436;2023-03-21T10:26:29;102007.03;;;16.86;78.59
77626;BME280;66794;43.764;10.436;2023-03-21T10:28:57;101999.00;;;16.99;78.07
77626;BME280;66794;43.764;10.436;2023-03-21T10:31:23;102009.28;;;16.97;77.08
77626;BME280;66794;43.764;10.436;2023-03-21T10:33:51;102008.78;;;17.38;80.61
77626;BME280;66794;43.764;10.436;2023-03-21T10:36:27;102001.53;;;17.00;78.14
77626;BME280;66794;43.764;10.436;2023-03-21T10:39:18;102000.31;;;16.88;80.28
77626;BME280;66794;43.764;10.436;2023-03-21T10:41:39;101998.03;;;17.21;80.98
77626;BME280;66794;43.764;10.436;2023-03-21T10:46:31;101995.13;;;17.08;78.95
77626;BME280;66794;43.764;10.436;2023-03-21T10:48:57;102001.25;;;17.25;75.73
77626;BME280;66794;43.764;10.436;2023-03-21T10:51:27;102001.72;;;17.28;75.50
77626;BME280;66794;43.764;10.436;2023-03-21T10:53:55;101995.84;;;17.46;80.25
77626;BME280;66794;43.764;10.436;2023-03-21T10:56:23;101998.16;;;17.13;75.38
77626;BME280;66794;43.764;10.436;2023-03-21T10:58:50;101998.81;;;16.63;78.63
77626;BME280;66794;43.764;10.436;2023-03-21T11:01:24;102002.09;;;17.11;77.59
77626;BME280;66794;43.764;10.436;2023-03-21T11:03:55;101997.88;;;17.08;88.18
77626;BME280;66794;43.764;10.436;2023-03-21T11:08:47;102000.13;;;16.52;86.71
77626;BME280;66794;43.764;10.436;2023-03-21T11:11:48;102001.00;;;16.29;88.02
77626;BME280;66794;43.764;10.436;2023-03-21T11:14:06;101994.94;;;16.95;88.71
77626;BME280;66794;43.764;10.436;2023-03-21T11:16:40;102009.56;;;16.49;88.04
77626;BME280;66794;43.764;10.436;2023-03-21T11:21:37;101991.31;;;16.79;87.69
77626;BME280;66794;43.764;10.436;2023-03-21T11:24:03;101997.31;;;16.60;89.90
77626;BME280;66794;43.764;10.436;2023-03-21T11:26:34;102005.03;;;16.56;88.66
77626;BME280;66794;43.764;10.436;2023-03-21T11:29:08;101988.06;;;17.14;89.75
77626;BME280;66794;43.764;10.436;2023-03-21T11:31:39;101990.66;;;16.40;87.33
77626;BME280;66794;43.764;10.436;2023-03-21T11:34:06;101989.91;;;17.28;86.67
77626;BME280;66794;43.764;10.436;2023-03-21T11:36:33;101981.91;;;16.82;86.93
77626;BME280;66794;43.764;10.436;2023-03-21T11:39:41;101991.09;;;16.66;88.64
77626;BME280;66794;43.764;10.436;2023-03-21T11:41:48;101984.44;;;16.46;86.12
77626;BME280;66794;43.764;10.436;2023-03-21T11:47:11;101967.78;;;16.55;90.62
77626;BME280;66794;43.764;10.436;2023-03-21T11:49:37;101966.47;;;16.66;84.73
77626;BME280;66794;43.764;10.436;2023-03-21T11:52:05;101965.28;;;16.08;87.81
77626;BME280;66794;43.764;10.436;2023-03-21T11:55:00;101953.63;;;16.14;89.02
77626;BME280;66794;43.764;10.436;2023-03-21T12:09:53;101916.94;;;16.32;82.57
77626;BME280;66794;43.764;10.436;2023-03-21T12:14:56;101913.41;;;16.90;80.38
77626;BME280;66794;43.764;10.436;2023-03-21T12:20:20;101914.03;;;17.22;82.21
77626;BME280;66794;43.764;10.436;2023-03-21T12:25:14;101902.19;;;17.36;80.81
77626;BME280;66794;43.764;10.436;2023-03-21T12:27:45;101891.41;;;16.69;80.75
77626;BME280;66794;43.764;10.436;2023-03-21T12:30:37;101888.19;;;17.09;79.57
77626;BME280;66794;43.764;10.436;2023-03-21T12:38:15;101877.94;;;17.33;78.35
77626;BME280;66794;43.764;10.436;2023-03-21T12:43:20;101870.31;;;17.50;80.66
77626;BME280;66794;43.764;10.436;2023-03-21T12:45:48;101866.84;;;17.20;79.96
77626;BME280;66794;43.764;10.436;2023-03-21T12:50:40;101867.16;;;16.95;79.40
77626;BME280;66794;43.764;10.436;2023-03-21T12:53:20;101861.03;;;17.08;83.23
77626;BME280;66794;43.764;10.436;2023-03-21T12:55:50;101874.53;;;16.95;84.09
77626;BME280;66794;43.764;10.436;2023-03-21T12:58:17;101867.38;;;16.94;83.88
77626;BME280;66794;43.764;10.436;2023-03-21T13:03:10;101862.44;;;17.40;79.59
77626;BME280;66794;43.764;10.436;2023-03-21T13:05:38;101858.63;;;17.20;80.12
77626;BME280;66794;43.764;10.436;2023-03-21T13:10:36;101851.06;;;17.22;78.22
77626;BME280;66794;43.764;10.436;2023-03-21T13:13:04;101846.31;;;16.94;79.58
77626;BME280;66794;43.764;10.436;2023-03-21T13:18:22;101847.06;;;17.03;83.55
77626;BME280;66794;43.764;10.436;2023-03-21T13:20:56;101842.78;;;17.73;78.18
77626;BME280;66794;43.764;10.436;2023-03-21T13:23:32;101844.53;;;18.08;76.01
77626;BME280;66794;43.764;10.436;2023-03-21T13:25:58;101846.38;;;18.29;75.05
77626;BME280;66794;43.764;10.436;2023-03-21T13:28:27;101847.47;;;17.21;78.21
77626;BME280;66794;43.764;10.436;2023-03-21T13:31:13;101846.47;;;17.65;76.55
77626;BME280;66794;43.764;10.436;2023-03-21T13:33:39;101835.50;;;18.14;75.72
77626;BME280;66794;43.764;10.436;2023-03-21T13:36:11;101838.50;;;18.20;74.00
77626;BME280;66794;43.764;10.436;2023-03-21T13:38:38;101831.16;;;17.99;76.72
77626;BME280;66794;43.764;10.436;2023-03-21T13:56:24;101820.75;;;17.02;79.14
77626;BME280;66794;43.764;10.436;2023-03-21T13:58:51;101820.22;;;17.56;78.35
77626;BME280;66794;43.764;10.436;2023-03-21T14:04:05;101822.00;;;17.21;81.45
77626;BME280;66794;43.764;10.436;2023-03-21T14:06:35;101824.03;;;17.76;80.13
77626;BME280;66794;43.764;10.436;2023-03-21T14:09:02;101826.25;;;17.87;76.79
77626;BME280;66794;43.764;10.436;2023-03-21T14:11:29;101818.22;;;18.14;76.29
77626;BME280;66794;43.764;10.436;2023-03-21T14:13:56;101821.34;;;18.39;75.23
77626;BME280;66794;43.764;10.436;2023-03-21T14:16:25;101819.47;;;18.11;77.39
77626;BME280;66794;43.764;10.436;2023-03-21T14:18:58;101816.59;;;18.54;74.69
77626;BME280;66794;43.764;10.436;2023-03-21T14:21:26;101799.22;;;18.12;77.29
77626;BME280;66794;43.764;10.436;2023-03-21T14:24:03;101813.50;;;17.16;82.66
77626;BME280;66794;43.764;10.436;2023-03-21T14:26:31;101809.63;;;17.68;82.28
77626;BME280;66794;43.764;10.436;2023-03-21T14:28:57;101808.59;;;18.25;81.21
77626;BME280;66794;43.764;10.436;2023-03-21T14:31:22;101801.91;;;18.69;77.09
77626;BME280;66794;43.764;10.436;2023-03-21T14:33:52;101808.91;;;18.08;77.64
77626;BME280;66794;43.764;10.436;2023-03-21T14:36:39;101806.22;;;17.66;79.87